N403WT RJSS-RJTF

Flight info

Callsign N403WT
Flight time 1h 5m
Altitude 6500
Route VFR
Aircraft DA62/L-VGD/C

Departure

Time 2026-04-20 05:13
Airport Sendai Airport (RJSS)

Arrival

Time 2026-04-20 06:18
Airport Chofu Airport (RJTF)
Time Latitude Longitude Altitude Speed Heading
2026-04-20 04:48 38.13390 140.92034 10 ft 0 kts 289°
2026-04-20 05:06 38.13391 140.92029 10 ft 2 kts 289°
2026-04-20 05:07 38.13403 140.91992 10 ft 8 kts 292°
2026-04-20 05:07 38.13449 140.91984 10 ft 12 kts 25°
2026-04-20 05:07 38.13494 140.91963 10 ft 10 kts 304°
2026-04-20 05:07 38.13512 140.91939 10 ft 7 kts 256°
2026-04-20 05:08 38.13544 140.91903 10 ft 10 kts 36°
2026-04-20 05:08 38.13621 140.91951 9 ft 12 kts 25°
2026-04-20 05:08 38.13695 140.91995 9 ft 13 kts 25°
2026-04-20 05:08 38.13777 140.92025 9 ft 12 kts
2026-04-20 05:09 38.13858 140.92040 11 ft 12 kts
2026-04-20 05:09 38.13924 140.92056 14 ft 8 kts 28°
2026-04-20 05:09 38.13940 140.92104 15 ft 5 kts 79°
2026-04-20 05:09 38.13944 140.92139 15 ft 3 kts 87°
2026-04-20 05:10 38.13950 140.92194 16 ft 12 kts 81°
2026-04-20 05:10 38.13962 140.92294 16 ft 10 kts 83°
2026-04-20 05:10 38.13972 140.92386 16 ft 13 kts 82°
2026-04-20 05:10 38.13984 140.92484 17 ft 10 kts 80°
2026-04-20 05:11 38.14018 140.92559 18 ft 12 kts
2026-04-20 05:11 38.14067 140.92560 19 ft 0 kts 355°
2026-04-20 05:11 38.14073 140.92559 19 ft 6 kts 353°
2026-04-20 05:12 38.14151 140.92555 20 ft 7 kts 59°
2026-04-20 05:12 38.14164 140.92658 15 ft 39 kts 82°
2026-04-20 05:12 38.14227 140.93261 92 ft 88 kts 82°
2026-04-20 05:12 38.14335 140.94114 364 ft 105 kts 83°
2026-04-20 05:13 38.14472 140.95089 657 ft 117 kts 87°
2026-04-20 05:13 38.14547 140.96174 852 ft 131 kts 91°
2026-04-20 05:13 38.14654 140.97359 1042 ft 141 kts 90°
2026-04-20 05:13 38.14552 140.98568 1249 ft 133 kts 129°
2026-04-20 05:14 38.13853 140.99304 1466 ft 132 kts 155°
2026-04-20 05:14 38.12953 140.99495 1680 ft 134 kts 182°
2026-04-20 05:14 38.12066 140.99088 1888 ft 138 kts 200°
2026-04-20 05:14 38.11212 140.98576 2093 ft 138 kts 199°
2026-04-20 05:15 38.10336 140.98073 2297 ft 139 kts 199°
2026-04-20 05:15 38.09448 140.97572 2506 ft 140 kts 199°
2026-04-20 05:15 38.08545 140.97069 2713 ft 144 kts 201°
2026-04-20 05:15 38.07624 140.96554 2912 ft 145 kts 201°
2026-04-20 05:16 38.06697 140.96037 3117 ft 146 kts 201°
2026-04-20 05:16 38.05767 140.95518 3319 ft 146 kts 202°
2026-04-20 05:16 38.04835 140.94998 3514 ft 146 kts 202°
2026-04-20 05:16 38.03902 140.94480 3718 ft 146 kts 203°
2026-04-20 05:17 38.02972 140.93962 3918 ft 146 kts 203°
2026-04-20 05:17 38.02042 140.93444 4121 ft 146 kts 203°
2026-04-20 05:17 38.01111 140.92925 4326 ft 147 kts 204°
2026-04-20 05:17 38.00171 140.92402 4531 ft 148 kts 204°
2026-04-20 05:18 37.99229 140.91879 4729 ft 148 kts 205°
2026-04-20 05:18 37.98286 140.91355 4939 ft 148 kts 205°
2026-04-20 05:18 37.97335 140.90825 5136 ft 150 kts 204°
2026-04-20 05:18 37.96368 140.90288 5332 ft 152 kts 204°
2026-04-20 05:19 37.95397 140.89749 5532 ft 152 kts 203°
2026-04-20 05:19 37.94439 140.89216 5728 ft 152 kts 202°
2026-04-20 05:19 37.93472 140.88679 5933 ft 152 kts 202°
2026-04-20 05:19 37.92498 140.88139 6134 ft 153 kts 202°
2026-04-20 05:20 37.91519 140.87596 6337 ft 154 kts 201°
2026-04-20 05:20 37.90529 140.87047 6497 ft 158 kts 201°
2026-04-20 05:20 37.89497 140.86475 6500 ft 165 kts 201°
2026-04-20 05:20 37.88431 140.85883 6505 ft 169 kts 201°
2026-04-20 05:21 37.87346 140.85281 6508 ft 171 kts 201°
2026-04-20 05:21 37.86244 140.84670 6512 ft 173 kts 201°
2026-04-20 05:21 37.85134 140.84056 6511 ft 174 kts 201°
2026-04-20 05:21 37.84024 140.83442 6505 ft 175 kts 201°
2026-04-20 05:22 37.82906 140.82821 6510 ft 176 kts 201°
2026-04-20 05:22 37.81799 140.82210 6503 ft 176 kts 201°
2026-04-20 05:22 37.80686 140.81592 6503 ft 175 kts 202°
2026-04-20 05:22 37.79570 140.80977 6504 ft 175 kts 202°
2026-04-20 05:23 37.78458 140.80362 6507 ft 175 kts 202°
2026-04-20 05:23 37.77333 140.79740 6503 ft 176 kts 202°
2026-04-20 05:23 37.76189 140.79107 6493 ft 183 kts 204°
2026-04-20 05:23 37.75403 140.78674 6490 ft 188 kts 204°
2026-04-20 05:24 37.73940 140.77866 6491 ft 192 kts 204°
2026-04-20 05:24 37.73125 140.77417 6492 ft 193 kts 204°
2026-04-20 05:24 37.71891 140.76735 6496 ft 194 kts 204°
2026-04-20 05:24 37.70652 140.76052 6499 ft 194 kts 204°
2026-04-20 05:25 37.69413 140.75369 6496 ft 195 kts 204°
2026-04-20 05:25 37.68167 140.74682 6499 ft 195 kts 204°
2026-04-20 05:25 37.66923 140.73997 6495 ft 194 kts 204°
2026-04-20 05:25 37.65702 140.73323 6494 ft 194 kts 204°
2026-04-20 05:26 37.64050 140.72414 6498 ft 194 kts 204°
2026-04-20 05:26 37.63233 140.71965 6493 ft 193 kts 204°
2026-04-20 05:26 37.62002 140.71288 6498 ft 193 kts 204°
2026-04-20 05:26 37.60772 140.70611 6499 ft 193 kts 204°
2026-04-20 05:27 37.59542 140.69934 6497 ft 193 kts 204°
2026-04-20 05:27 37.58309 140.69258 6499 ft 193 kts 203°
2026-04-20 05:27 37.57082 140.68582 6497 ft 192 kts 203°
2026-04-20 05:27 37.55858 140.67910 6500 ft 192 kts 203°
2026-04-20 05:28 37.54631 140.67238 6496 ft 192 kts 203°
2026-04-20 05:28 37.53407 140.66566 6499 ft 192 kts 203°
2026-04-20 05:28 37.52184 140.65894 6502 ft 191 kts 203°
2026-04-20 05:28 37.50963 140.65225 6504 ft 192 kts 203°
2026-04-20 05:29 37.49740 140.64555 6503 ft 191 kts 203°
2026-04-20 05:29 37.48523 140.63887 6500 ft 191 kts 203°
2026-04-20 05:29 37.47307 140.63223 6502 ft 191 kts 203°
2026-04-20 05:29 37.46093 140.62556 6505 ft 190 kts 203°
2026-04-20 05:30 37.44875 140.61890 6503 ft 191 kts 203°
2026-04-20 05:30 37.43656 140.61222 6505 ft 191 kts 202°
2026-04-20 05:30 37.42441 140.60559 6506 ft 190 kts 203°
2026-04-20 05:30 37.41237 140.59900 6506 ft 191 kts 203°
2026-04-20 05:31 37.40010 140.59230 6501 ft 190 kts 202°
2026-04-20 05:31 37.38812 140.58574 6507 ft 190 kts 203°
2026-04-20 05:31 37.37603 140.57915 6507 ft 189 kts 203°
2026-04-20 05:31 37.36402 140.57257 6507 ft 188 kts 202°
2026-04-20 05:32 37.35201 140.56603 6501 ft 188 kts 202°
2026-04-20 05:32 37.33997 140.55945 6508 ft 188 kts 202°
2026-04-20 05:32 37.32794 140.55288 6507 ft 188 kts 202°
2026-04-20 05:32 37.31596 140.54636 6506 ft 187 kts 202°
2026-04-20 05:33 37.30402 140.53985 6507 ft 186 kts 202°
2026-04-20 05:33 37.29215 140.53338 6505 ft 186 kts 202°
2026-04-20 05:33 37.28032 140.52692 6503 ft 184 kts 202°
2026-04-20 05:33 37.26863 140.52057 6505 ft 183 kts 202°
2026-04-20 05:34 37.25690 140.51420 6501 ft 183 kts 202°
2026-04-20 05:34 37.24519 140.50782 6505 ft 184 kts 202°
2026-04-20 05:34 37.22170 140.49503 6502 ft 184 kts 202°
2026-04-20 05:35 37.20998 140.48867 6504 ft 183 kts 202°
2026-04-20 05:35 37.19840 140.48237 6507 ft 184 kts 202°
2026-04-20 05:35 37.18666 140.47600 6503 ft 183 kts 202°
2026-04-20 05:35 37.17462 140.47131 6503 ft 181 kts 190°
2026-04-20 05:36 37.16231 140.46792 6505 ft 181 kts 192°
2026-04-20 05:36 37.14997 140.46436 6502 ft 182 kts 192°
2026-04-20 05:36 37.13769 140.46082 6500 ft 180 kts 192°
2026-04-20 05:36 37.12555 140.45737 6502 ft 179 kts 192°
2026-04-20 05:37 37.11338 140.45392 6507 ft 180 kts 192°
2026-04-20 05:37 37.10117 140.45044 6506 ft 180 kts 192°
2026-04-20 05:37 37.08897 140.44697 6506 ft 179 kts 192°
2026-04-20 05:37 37.07679 140.44351 6500 ft 179 kts 193°
2026-04-20 05:38 37.06476 140.44009 6505 ft 180 kts 192°
2026-04-20 05:38 37.05258 140.43663 6503 ft 179 kts 192°
2026-04-20 05:38 37.04041 140.43318 6509 ft 179 kts 192°
2026-04-20 05:38 37.02822 140.42970 6508 ft 180 kts 192°
2026-04-20 05:39 37.01602 140.42624 6509 ft 180 kts 192°
2026-04-20 05:39 37.00382 140.42280 6510 ft 180 kts 192°
2026-04-20 05:39 36.99163 140.41932 6513 ft 179 kts 192°
2026-04-20 05:39 36.97946 140.41588 6502 ft 179 kts 192°
2026-04-20 05:40 36.96727 140.41242 6507 ft 180 kts 192°
2026-04-20 05:40 36.95503 140.40896 6508 ft 181 kts 192°
2026-04-20 05:40 36.94278 140.40547 6504 ft 180 kts 192°
2026-04-20 05:40 36.93034 140.40442 6505 ft 180 kts 174°
2026-04-20 05:41 36.91800 140.40667 6510 ft 179 kts 172°
2026-04-20 05:41 36.90567 140.40911 6515 ft 179 kts 172°
2026-04-20 05:41 36.89335 140.41157 6510 ft 180 kts 172°
2026-04-20 05:41 36.88096 140.41404 6513 ft 180 kts 172°
2026-04-20 05:42 36.86858 140.41645 6515 ft 180 kts 172°
2026-04-20 05:42 36.85620 140.41887 6509 ft 179 kts 172°
2026-04-20 05:42 36.84390 140.42126 6510 ft 178 kts 172°
2026-04-20 05:42 36.83162 140.42365 6503 ft 178 kts 172°
2026-04-20 05:43 36.81957 140.42595 6499 ft 176 kts 172°
2026-04-20 05:43 36.80727 140.42829 6506 ft 177 kts 172°
2026-04-20 05:43 36.79526 140.43054 6509 ft 177 kts 172°
2026-04-20 05:43 36.78299 140.43293 6510 ft 178 kts 172°
2026-04-20 05:44 36.77071 140.43527 6520 ft 179 kts 172°
2026-04-20 05:44 36.75830 140.43758 6505 ft 180 kts 172°
2026-04-20 05:44 36.74576 140.43995 6497 ft 183 kts 172°
2026-04-20 05:44 36.73328 140.44231 6500 ft 180 kts 171°
2026-04-20 05:45 36.72087 140.44466 6498 ft 181 kts 172°
2026-04-20 05:45 36.70848 140.44687 6502 ft 180 kts 172°
2026-04-20 05:45 36.69605 140.44920 6503 ft 181 kts 171°
2026-04-20 05:45 36.68365 140.45133 6501 ft 180 kts 172°
2026-04-20 05:46 36.67126 140.45359 6502 ft 179 kts 172°
2026-04-20 05:46 36.65891 140.45584 6498 ft 180 kts 172°
2026-04-20 05:46 36.64655 140.45804 6502 ft 178 kts 172°
2026-04-20 05:46 36.63427 140.46023 6498 ft 178 kts 172°
2026-04-20 05:47 36.62199 140.46243 6501 ft 178 kts 172°
2026-04-20 05:47 36.60973 140.46466 6501 ft 178 kts 172°
2026-04-20 05:47 36.59748 140.46686 6505 ft 177 kts 172°
2026-04-20 05:47 36.58525 140.46902 6501 ft 178 kts 172°
2026-04-20 05:48 36.57297 140.47121 6505 ft 178 kts 172°
2026-04-20 05:48 36.56067 140.47341 6500 ft 178 kts 172°
2026-04-20 05:48 36.54842 140.47380 6502 ft 178 kts 194°
2026-04-20 05:48 36.53860 140.46445 6505 ft 184 kts 231°
2026-04-20 05:49 36.53139 140.45163 6509 ft 182 kts 226°
2026-04-20 05:49 36.52266 140.44020 6508 ft 182 kts 221°
2026-04-20 05:49 36.51347 140.42935 6509 ft 183 kts 220°
2026-04-20 05:49 36.50424 140.41851 6508 ft 183 kts 220°
2026-04-20 05:50 36.49500 140.40759 6500 ft 182 kts 220°
2026-04-20 05:50 36.48585 140.39674 6503 ft 182 kts 220°
2026-04-20 05:50 36.47664 140.38583 6498 ft 182 kts 220°
2026-04-20 05:50 36.46773 140.37528 6498 ft 182 kts 220°
2026-04-20 05:51 36.45853 140.36440 6499 ft 182 kts 220°
2026-04-20 05:51 36.44933 140.35351 6499 ft 182 kts 220°
2026-04-20 05:51 36.44015 140.34266 6495 ft 182 kts 220°
2026-04-20 05:51 36.43095 140.33179 6494 ft 183 kts 220°
2026-04-20 05:52 36.42177 140.32093 6496 ft 183 kts 220°
2026-04-20 05:52 36.41256 140.31006 6493 ft 183 kts 220°
2026-04-20 05:52 36.40335 140.29916 6491 ft 182 kts 220°
2026-04-20 05:52 36.39419 140.28837 6493 ft 181 kts 220°
2026-04-20 05:53 36.38503 140.27757 6491 ft 182 kts 219°
2026-04-20 05:53 36.37585 140.26673 6490 ft 182 kts 220°
2026-04-20 05:53 36.36672 140.25595 6495 ft 182 kts 220°
2026-04-20 05:53 36.35752 140.24512 6492 ft 182 kts 220°
2026-04-20 05:54 36.34845 140.23443 6496 ft 183 kts 220°
2026-04-20 05:54 36.33922 140.22356 6493 ft 183 kts 220°
2026-04-20 05:54 36.32988 140.21255 6491 ft 183 kts 220°
2026-04-20 05:54 36.32082 140.20188 6486 ft 181 kts 220°
2026-04-20 05:55 36.31153 140.19095 6490 ft 182 kts 220°
2026-04-20 05:55 36.30246 140.18026 6489 ft 182 kts 220°
2026-04-20 05:55 36.29312 140.16931 6491 ft 183 kts 220°
2026-04-20 05:55 36.28392 140.15849 6485 ft 182 kts 220°
2026-04-20 05:56 36.27476 140.14771 6488 ft 182 kts 220°
2026-04-20 05:56 36.26562 140.13696 6493 ft 182 kts 220°
2026-04-20 05:56 36.25635 140.12610 6487 ft 183 kts 220°
2026-04-20 05:56 36.24718 140.11531 6488 ft 182 kts 220°
2026-04-20 05:57 36.23801 140.10455 6487 ft 180 kts 220°
2026-04-20 05:57 36.22895 140.09393 6478 ft 179 kts 220°
2026-04-20 05:57 36.21993 140.08332 6488 ft 179 kts 220°
2026-04-20 05:57 36.21079 140.07265 6487 ft 182 kts 220°
2026-04-20 05:58 36.20161 140.06189 6488 ft 183 kts 220°
2026-04-20 05:58 36.19238 140.05107 6487 ft 183 kts 220°
2026-04-20 05:58 36.18314 140.04024 6485 ft 182 kts 220°
2026-04-20 05:58 36.17394 140.02945 6489 ft 182 kts 220°
2026-04-20 05:59 36.16474 140.01868 6490 ft 182 kts 220°
2026-04-20 05:59 36.15551 140.00789 6485 ft 182 kts 220°
2026-04-20 05:59 36.14628 139.99711 6492 ft 182 kts 220°
2026-04-20 05:59 36.13704 139.98628 6489 ft 183 kts 220°
2026-04-20 06:00 36.12782 139.97553 6488 ft 182 kts 220°
2026-04-20 06:00 36.11858 139.96473 6486 ft 183 kts 220°
2026-04-20 06:00 36.10933 139.95391 6487 ft 183 kts 220°
2026-04-20 06:00 36.10011 139.94313 6492 ft 183 kts 220°
2026-04-20 06:01 36.09085 139.93234 6491 ft 183 kts 220°
2026-04-20 06:01 36.08173 139.92171 6491 ft 182 kts 220°
2026-04-20 06:01 36.07241 139.91082 6493 ft 182 kts 220°
2026-04-20 06:01 36.06328 139.90018 6487 ft 183 kts 220°
2026-04-20 06:02 36.05405 139.88942 6490 ft 183 kts 220°
2026-04-20 06:02 36.04473 139.87855 6491 ft 184 kts 220°
2026-04-20 06:02 36.03544 139.86773 6494 ft 184 kts 220°
2026-04-20 06:02 36.02618 139.85695 6494 ft 184 kts 220°
2026-04-20 06:03 36.01678 139.84601 6493 ft 184 kts 220°
2026-04-20 06:03 36.00765 139.83495 6481 ft 185 kts 224°
2026-04-20 06:03 35.99888 139.82324 6490 ft 185 kts 223°
2026-04-20 06:03 35.99005 139.81167 6492 ft 185 kts 223°
2026-04-20 06:04 35.98132 139.80019 6338 ft 171 kts 224°
2026-04-20 06:04 35.97384 139.79029 6123 ft 150 kts 223°
2026-04-20 06:04 35.96702 139.78132 5900 ft 137 kts 222°
2026-04-20 06:04 35.96075 139.77309 5674 ft 127 kts 222°
2026-04-20 06:05 35.95489 139.76540 5454 ft 120 kts 222°
2026-04-20 06:05 35.95116 139.76049 5308 ft 116 kts 221°
2026-04-20 06:05 35.94568 139.75330 5084 ft 111 kts 221°
2026-04-20 06:06 35.94252 139.74918 4962 ft 109 kts 221°
2026-04-20 06:06 35.93743 139.74248 4753 ft 106 kts 221°
2026-04-20 06:07 35.93246 139.73596 4536 ft 104 kts 220°
2026-04-20 06:07 35.92752 139.72948 4327 ft 103 kts 220°
2026-04-20 06:07 35.92262 139.72304 4118 ft 102 kts 219°
2026-04-20 06:07 35.91774 139.71666 3909 ft 102 kts 219°
2026-04-20 06:08 35.91288 139.71026 3713 ft 103 kts 219°
2026-04-20 06:08 35.90793 139.70379 3521 ft 105 kts 220°
2026-04-20 06:08 35.90289 139.69719 3324 ft 110 kts 219°
2026-04-20 06:08 35.89733 139.68992 3153 ft 122 kts 220°
2026-04-20 06:09 35.89129 139.68202 2962 ft 131 kts 221°
2026-04-20 06:09 35.88493 139.67368 2789 ft 137 kts 221°
2026-04-20 06:09 35.87835 139.66502 2604 ft 139 kts 221°
2026-04-20 06:09 35.87172 139.65629 2481 ft 136 kts 221°
2026-04-20 06:10 35.86549 139.64811 2479 ft 127 kts 220°
2026-04-20 06:10 35.85964 139.64042 2491 ft 119 kts 220°
2026-04-20 06:10 35.85390 139.63296 2493 ft 121 kts 219°
2026-04-20 06:10 35.84805 139.62530 2493 ft 124 kts 220°
2026-04-20 06:11 35.84203 139.61764 2494 ft 124 kts 214°
2026-04-20 06:11 35.83465 139.61277 2506 ft 120 kts 197°
2026-04-20 06:11 35.82798 139.60648 2499 ft 128 kts 226°
2026-04-20 06:11 35.82223 139.59780 2508 ft 130 kts 223°
2026-04-20 06:12 35.81643 139.58917 2504 ft 130 kts 224°
2026-04-20 06:12 35.81074 139.58069 2483 ft 127 kts 224°
2026-04-20 06:12 35.80526 139.57250 2485 ft 121 kts 223°
2026-04-20 06:12 35.79986 139.56450 2488 ft 123 kts 224°
2026-04-20 06:13 35.79429 139.55622 2491 ft 128 kts 224°
2026-04-20 06:13 35.78859 139.54773 2493 ft 129 kts 224°
2026-04-20 06:13 35.78287 139.53923 2485 ft 129 kts 224°
2026-04-20 06:13 35.77720 139.53079 2348 ft 126 kts 224°
2026-04-20 06:14 35.77179 139.52272 2203 ft 122 kts 225°
2026-04-20 06:14 35.76642 139.51475 2042 ft 119 kts 224°
2026-04-20 06:14 35.76122 139.50704 1887 ft 112 kts 222°
2026-04-20 06:14 35.75530 139.50196 1743 ft 96 kts 197°
2026-04-20 06:15 35.74924 139.50031 1623 ft 88 kts 179°
2026-04-20 06:15 35.74314 139.50139 1507 ft 89 kts 162°
2026-04-20 06:15 35.73720 139.50363 1392 ft 90 kts 164°
2026-04-20 06:15 35.73109 139.50591 1278 ft 93 kts 162°
2026-04-20 06:16 35.72500 139.50816 1148 ft 90 kts 162°
2026-04-20 06:16 35.71913 139.51032 1024 ft 86 kts 163°
2026-04-20 06:16 35.71311 139.51255 922 ft 95 kts 163°
2026-04-20 06:16 35.70670 139.51493 793 ft 97 kts 161°
2026-04-20 06:17 35.70049 139.51720 661 ft 87 kts 158°
2026-04-20 06:17 35.69505 139.51920 552 ft 79 kts 159°
2026-04-20 06:17 35.68989 139.52114 448 ft 78 kts 159°
2026-04-20 06:17 35.68465 139.52304 358 ft 80 kts 161°
2026-04-20 06:18 35.67926 139.52521 253 ft 80 kts 161°
2026-04-20 06:18 35.67434 139.52697 152 ft 60 kts 164°
2026-04-20 06:18 35.67166 139.52791 144 ft 11 kts 162°
2026-04-20 06:18 35.67147 139.52828 145 ft 3 kts 81°
2026-04-20 06:19 35.67148 139.52832 145 ft 0 kts 78°
2026-04-20 06:19 35.67144 139.52845 145 ft 4 kts 125°
2026-04-20 06:19 35.67131 139.52875 145 ft 6 kts 75°
2026-04-20 06:20 35.67138 139.52914 145 ft 4 kts 97°
2026-04-20 06:20 35.67130 139.52924 145 ft 0 kts 163°